createdAt,value
2022-12-24T00:01:59.190Z,9.30
2022-12-24T00:04:26.389Z,9.30
2022-12-24T00:06:53.683Z,9.30
2022-12-24T00:09:20.844Z,9.30
2022-12-24T00:11:48.405Z,9.40
2022-12-24T00:14:15.500Z,9.40
2022-12-24T00:16:42.611Z,9.30
2022-12-24T00:19:09.801Z,9.30
2022-12-24T00:21:36.965Z,9.30
2022-12-24T00:24:05.862Z,9.40
2022-12-24T00:26:33.713Z,9.30
2022-12-24T00:29:00.855Z,9.30
2022-12-24T00:31:27.982Z,9.40
2022-12-24T00:33:55.105Z,9.30
2022-12-24T00:36:22.274Z,9.40
2022-12-24T00:38:49.422Z,9.40
2022-12-24T00:41:26.040Z,9.50
2022-12-24T00:44:00.382Z,9.40
2022-12-24T00:46:28.803Z,9.40
2022-12-24T00:48:56.373Z,9.40
2022-12-24T00:51:23.723Z,9.40
2022-12-24T00:53:51.478Z,9.40
2022-12-24T00:56:18.698Z,9.40
2022-12-24T00:58:46.021Z,9.40
2022-12-24T01:01:13.372Z,9.40
2022-12-24T01:03:49.048Z,9.40
2022-12-24T01:06:18.348Z,9.40
2022-12-24T01:08:45.853Z,9.40
2022-12-24T01:11:13.479Z,9.40
2022-12-24T01:13:40.735Z,9.40
2022-12-24T01:16:15.736Z,9.40
2022-12-24T01:18:43.142Z,9.30
2022-12-24T01:21:10.315Z,9.40
2022-12-24T01:23:37.519Z,9.50
2022-12-24T01:26:06.081Z,9.40
2022-12-24T01:28:33.440Z,9.50
2022-12-24T01:31:00.808Z,9.40
2022-12-24T01:33:28.851Z,9.40
2022-12-24T01:35:55.995Z,9.40
2022-12-24T01:38:23.465Z,9.50
2022-12-24T01:41:09.401Z,9.40
2022-12-24T01:43:36.497Z,9.40
2022-12-24T01:46:04.888Z,9.40
2022-12-24T01:48:35.763Z,9.30
2022-12-24T01:51:06.526Z,9.30
2022-12-24T01:53:34.755Z,9.40
2022-12-24T01:56:02.239Z,9.30
2022-12-24T01:58:29.753Z,9.80
2022-12-24T02:00:57.589Z,10.40
2022-12-24T02:03:24.811Z,9.40
2022-12-24T02:05:53.534Z,9.40
2022-12-24T02:08:20.921Z,9.40
2022-12-24T02:10:48.719Z,9.30
2022-12-24T02:13:17.549Z,9.30
2022-12-24T02:15:44.775Z,9.30
2022-12-24T02:18:17.503Z,9.30
2022-12-24T02:20:44.637Z,9.30
2022-12-24T02:23:11.904Z,9.30
2022-12-24T02:25:41.832Z,9.30
2022-12-24T02:28:12.173Z,9.20
2022-12-24T02:30:43.874Z,9.30
2022-12-24T02:33:17.235Z,9.30
2022-12-24T02:35:53.550Z,9.20
2022-12-24T02:38:31.615Z,9.30
2022-12-24T02:41:03.518Z,9.30
2022-12-24T02:43:35.970Z,9.30
2022-12-24T02:46:06.586Z,9.30
2022-12-24T02:48:35.207Z,9.20
2022-12-24T02:51:04.376Z,9.20
2022-12-24T02:53:32.263Z,9.30
2022-12-24T02:56:19.727Z,9.20
2022-12-24T02:58:49.869Z,8.40
2022-12-24T03:01:17.428Z,9.20
2022-12-24T03:03:47.835Z,9.70
2022-12-24T03:06:32.678Z,9.20
2022-12-24T03:09:14.896Z,9.30
2022-12-24T03:11:45.273Z,9.20
2022-12-24T03:14:13.014Z,9.30
2022-12-24T03:16:40.303Z,9.30
2022-12-24T03:19:07.414Z,9.30
2022-12-24T03:21:35.729Z,9.20
2022-12-24T03:24:02.965Z,9.30
2022-12-24T03:26:31.713Z,9.20
2022-12-24T03:28:59.272Z,9.20
2022-12-24T03:31:26.419Z,9.30
2022-12-24T03:33:53.660Z,9.20
2022-12-24T03:36:20.848Z,9.30
2022-12-24T03:38:47.928Z,9.20
2022-12-24T03:41:15.146Z,9.20
2022-12-24T03:43:42.218Z,9.20
2022-12-24T03:46:09.509Z,9.20
2022-12-24T03:48:36.776Z,9.50
2022-12-24T03:51:04.206Z,9.20
2022-12-24T03:53:31.389Z,9.30
2022-12-24T03:55:59.657Z,9.30
2022-12-24T03:58:26.751Z,9.30
2022-12-24T04:00:54.101Z,9.30
2022-12-24T04:03:21.367Z,9.20
2022-12-24T04:05:48.637Z,9.30
2022-12-24T04:08:15.916Z,9.20
2022-12-24T04:10:43.054Z,9.20
2022-12-24T04:13:10.128Z,9.20
2022-12-24T04:15:37.249Z,9.20
2022-12-24T04:18:04.546Z,9.20
2022-12-24T04:20:31.876Z,9.20
2022-12-24T04:22:59.022Z,9.20
2022-12-24T04:25:26.196Z,9.20
2022-12-24T04:27:53.341Z,9.10
2022-12-24T04:30:20.445Z,9.20
2022-12-24T04:32:47.583Z,9.00
2022-12-24T04:35:14.746Z,9.10
2022-12-24T04:37:41.899Z,9.10
2022-12-24T04:40:09.469Z,9.20
2022-12-24T04:42:36.965Z,9.20
2022-12-24T04:45:04.206Z,9.20
2022-12-24T04:47:31.311Z,9.20
2022-12-24T04:49:59.247Z,9.10
2022-12-24T04:52:26.766Z,9.10
2022-12-24T04:54:53.836Z,9.10
2022-12-24T04:57:21.340Z,9.10
2022-12-24T04:59:48.432Z,9.10
2022-12-24T05:02:15.805Z,9.50
2022-12-24T05:04:44.355Z,9.20
2022-12-24T05:07:11.598Z,9.80
2022-12-24T05:09:38.660Z,9.20
2022-12-24T05:12:06.013Z,9.20
2022-12-24T05:14:33.124Z,9.20
2022-12-24T05:17:01.370Z,9.10
2022-12-24T05:19:28.584Z,9.10
2022-12-24T05:22:14.340Z,9.10
2022-12-24T05:24:59.966Z,9.10
2022-12-24T05:27:27.234Z,9.10
2022-12-24T05:29:54.336Z,9.10
2022-12-24T05:32:21.555Z,9.10
2022-12-24T05:34:48.837Z,8.50
2022-12-24T05:37:16.200Z,9.00
2022-12-24T05:39:43.286Z,9.00
2022-12-24T05:42:10.408Z,9.00
2022-12-24T05:44:37.794Z,9.00
2022-12-24T05:47:04.970Z,9.00
2022-12-24T05:49:32.733Z,9.00
2022-12-24T05:51:59.844Z,9.10
2022-12-24T05:54:27.157Z,9.40
2022-12-24T05:56:54.274Z,9.10
2022-12-24T05:59:21.375Z,9.10
2022-12-24T06:01:48.687Z,9.10
2022-12-24T06:04:15.855Z,9.00
2022-12-24T06:06:43.203Z,9.00
2022-12-24T06:09:10.373Z,9.00
2022-12-24T06:11:37.765Z,9.00
2022-12-24T06:14:05.359Z,9.00
2022-12-24T06:16:32.530Z,9.00
2022-12-24T06:18:59.812Z,9.00
2022-12-24T06:21:27.488Z,8.90
2022-12-24T06:23:54.645Z,8.90
2022-12-24T06:26:22.920Z,8.90
2022-12-24T06:28:50.432Z,8.90
2022-12-24T06:31:19.217Z,8.90
2022-12-24T06:33:46.395Z,8.90
2022-12-24T06:36:21.636Z,8.90
2022-12-24T06:38:49.567Z,8.90
2022-12-24T06:41:16.984Z,8.90
2022-12-24T06:43:47.792Z,8.80
2022-12-24T06:46:15.326Z,8.80
2022-12-24T06:48:44.557Z,8.80
2022-12-24T06:51:12.466Z,8.80
2022-12-24T06:53:39.668Z,8.80
2022-12-24T06:56:08.201Z,8.00
2022-12-24T06:58:35.846Z,8.70
2022-12-24T07:01:03.901Z,8.80
2022-12-24T07:03:31.436Z,8.80
2022-12-24T07:05:58.932Z,8.80
2022-12-24T07:08:26.240Z,8.80
2022-12-24T07:10:54.537Z,8.70
2022-12-24T07:13:22.069Z,8.70
2022-12-24T07:15:56.936Z,8.70
2022-12-24T07:18:24.069Z,8.70
2022-12-24T07:20:51.165Z,8.70
2022-12-24T07:23:18.294Z,8.70
2022-12-24T07:25:45.457Z,8.60
2022-12-24T07:28:12.612Z,8.60
2022-12-24T07:30:39.732Z,8.60
2022-12-24T07:33:07.223Z,8.50
2022-12-24T07:35:34.838Z,8.10
2022-12-24T07:38:02.268Z,8.50
2022-12-24T07:40:29.470Z,8.50
2022-12-24T07:42:58.156Z,8.40
2022-12-24T07:45:25.258Z,8.40
2022-12-24T07:47:52.752Z,8.10
2022-12-24T07:50:19.892Z,9.10
2022-12-24T07:52:46.979Z,8.40
2022-12-24T07:55:14.107Z,8.30
2022-12-24T07:57:41.261Z,8.40
2022-12-24T08:00:08.680Z,8.40
2022-12-24T08:02:36.989Z,8.40
2022-12-24T08:05:04.380Z,8.40
2022-12-24T08:07:31.515Z,8.30
2022-12-24T08:09:58.874Z,8.30
2022-12-24T08:12:26.069Z,8.70
2022-12-24T08:14:53.721Z,8.20
2022-12-24T08:17:20.816Z,8.20
2022-12-24T08:19:47.888Z,8.10
2022-12-24T08:22:15.523Z,8.10
2022-12-24T08:24:43.056Z,8.10
2022-12-24T08:27:10.159Z,8.00
2022-12-24T08:29:37.254Z,8.10
2022-12-24T08:32:04.633Z,8.00
2022-12-24T08:34:31.978Z,8.00
2022-12-24T08:36:59.082Z,7.90
2022-12-24T08:39:26.351Z,7.90
2022-12-24T08:41:53.429Z,7.90
2022-12-24T08:44:20.758Z,7.90
2022-12-24T08:46:47.875Z,7.90
2022-12-24T08:49:15.005Z,7.90
2022-12-24T08:51:42.125Z,7.90
2022-12-24T08:54:09.264Z,7.90
2022-12-24T08:56:36.556Z,7.90
2022-12-24T08:59:03.860Z,7.90
2022-12-24T09:01:31.978Z,8.00
2022-12-24T09:03:59.237Z,8.00
2022-12-24T09:06:26.421Z,8.00
2022-12-24T09:08:53.721Z,8.00
2022-12-24T09:11:20.875Z,8.00
2022-12-24T09:13:47.975Z,8.00
2022-12-24T09:16:15.259Z,8.00
2022-12-24T09:18:42.722Z,8.00
2022-12-24T09:21:17.794Z,6.90
2022-12-24T09:23:46.096Z,7.90
2022-12-24T09:26:26.209Z,7.90
2022-12-24T09:28:53.640Z,7.90
2022-12-24T09:31:21.937Z,8.00
2022-12-24T09:33:49.750Z,8.00
2022-12-24T09:36:18.103Z,8.00
2022-12-24T09:38:45.510Z,8.00
2022-12-24T09:41:24.894Z,8.00
2022-12-24T09:43:58.362Z,8.10
2022-12-24T09:46:30.331Z,8.10
2022-12-24T09:48:58.952Z,9.40
2022-12-24T09:51:29.719Z,8.20
2022-12-24T09:54:10.595Z,8.10
2022-12-24T09:56:39.895Z,8.20
2022-12-24T09:59:11.289Z,7.00
2022-12-24T10:01:38.584Z,8.30
2022-12-24T10:04:27.159Z,8.30
2022-12-24T10:07:02.376Z,8.40
2022-12-24T10:09:35.412Z,8.40
2022-12-24T10:12:08.821Z,8.50
2022-12-24T10:14:53.080Z,8.50
2022-12-24T10:17:20.177Z,8.00
2022-12-24T10:19:52.417Z,8.60
2022-12-24T10:22:30.174Z,8.60
2022-12-24T10:25:04.549Z,8.60
2022-12-24T10:27:35.793Z,8.60
2022-12-24T10:30:10.440Z,8.70
2022-12-24T10:32:40.971Z,8.70
2022-12-24T10:35:17.088Z,8.70
2022-12-24T10:37:45.197Z,8.80
2022-12-24T10:40:19.658Z,8.80
2022-12-24T10:42:51.275Z,8.70
2022-12-24T10:45:21.498Z,8.70
2022-12-24T10:47:52.120Z,9.70
2022-12-24T10:50:21.917Z,8.80
2022-12-24T10:52:51.410Z,8.40
2022-12-24T10:55:18.481Z,8.90
2022-12-24T10:57:47.031Z,8.90
2022-12-24T11:00:21.576Z,8.90
2022-12-24T11:02:49.419Z,9.00
2022-12-24T11:05:33.677Z,9.00
2022-12-24T11:08:01.814Z,9.00
2022-12-24T11:10:29.418Z,9.10
2022-12-24T11:13:27.815Z,9.10
2022-12-24T11:15:43.838Z,9.10
2022-12-24T11:18:15.439Z,9.10
2022-12-24T11:20:49.440Z,9.20
2022-12-24T11:23:17.024Z,9.20
2022-12-24T11:25:48.450Z,9.20
2022-12-24T11:28:21.400Z,9.20
2022-12-24T11:31:00.577Z,9.30
2022-12-24T11:33:28.397Z,9.20
2022-12-24T11:35:57.576Z,9.30
2022-12-24T11:38:26.094Z,9.40
2022-12-24T11:40:59.585Z,9.40
2022-12-24T11:43:44.488Z,9.40
2022-12-24T11:46:22.806Z,9.50
2022-12-24T11:49:07.833Z,9.50
2022-12-24T11:51:35.983Z,9.10
2022-12-24T11:54:26.905Z,9.50
2022-12-24T11:56:55.341Z,9.60
2022-12-24T11:59:26.975Z,9.60
2022-12-24T12:02:00.126Z,11.00
2022-12-24T12:04:35.446Z,9.60
2022-12-24T12:07:09.659Z,9.10
2022-12-24T12:09:43.012Z,9.70
2022-12-24T12:12:21.571Z,9.70
2022-12-24T12:14:50.956Z,9.70
2022-12-24T12:17:32.633Z,9.80
2022-12-24T12:20:07.367Z,9.80
2022-12-24T12:22:39.140Z,9.80
2022-12-24T12:25:14.703Z,9.70
2022-12-24T12:27:44.275Z,9.80
2022-12-24T12:30:15.315Z,9.80
2022-12-24T12:32:42.472Z,9.90
2022-12-24T12:35:25.172Z,9.90
2022-12-24T12:38:03.956Z,9.90
2022-12-24T12:40:48.004Z,10.00
2022-12-24T12:43:15.077Z,10.00
2022-12-24T12:46:02.413Z,10.10
2022-12-24T12:48:29.482Z,10.00
2022-12-24T12:51:05.890Z,10.00
2022-12-24T12:53:38.849Z,10.00
2022-12-24T12:56:15.237Z,10.00
2022-12-24T12:58:42.372Z,10.00
2022-12-24T13:01:14.121Z,10.00
2022-12-24T13:03:50.239Z,10.10
2022-12-24T13:06:37.736Z,10.10
2022-12-24T13:09:08.510Z,10.50
2022-12-24T13:11:43.053Z,10.10
2022-12-24T13:14:28.732Z,10.10
2022-12-24T13:17:15.220Z,10.80
2022-12-24T13:19:45.292Z,10.20
2022-12-24T13:22:21.253Z,10.20
2022-12-24T13:24:57.275Z,10.20
2022-12-24T13:27:29.033Z,10.20
2022-12-24T13:29:57.259Z,10.20
2022-12-24T13:32:24.329Z,10.20
2022-12-24T13:34:55.701Z,9.90
2022-12-24T13:37:22.808Z,10.20
2022-12-24T13:40:02.055Z,10.20
2022-12-24T13:42:48.283Z,10.20
2022-12-24T13:45:33.481Z,10.20
2022-12-24T13:48:01.935Z,10.20
2022-12-24T13:50:37.609Z,10.20
2022-12-24T13:53:05.605Z,10.20
2022-12-24T13:55:33.307Z,10.30
2022-12-24T13:58:02.728Z,10.20
2022-12-24T14:00:29.916Z,10.30
2022-12-24T14:03:26.413Z,10.30
2022-12-24T14:05:58.268Z,10.30
2022-12-24T14:08:27.630Z,10.20
2022-12-24T14:11:03.832Z,10.20
2022-12-24T14:13:40.076Z,10.20
2022-12-24T14:16:07.278Z,10.20
2022-12-24T14:18:54.647Z,10.10
2022-12-24T14:21:23.304Z,10.10
2022-12-24T14:23:54.088Z,10.10
2022-12-24T14:26:22.668Z,10.10
2022-12-24T14:28:55.633Z,10.10
2022-12-24T14:31:23.126Z,10.20
2022-12-24T14:33:50.244Z,10.10
2022-12-24T14:36:20.315Z,10.00
2022-12-24T14:38:48.251Z,10.10
2022-12-24T14:41:20.962Z,10.00
2022-12-24T14:44:06.699Z,10.10
2022-12-24T14:46:52.609Z,9.30
2022-12-24T14:49:31.806Z,11.30
2022-12-24T14:52:30.755Z,10.00
2022-12-24T14:54:58.130Z,10.00
2022-12-24T14:57:26.383Z,10.00
2022-12-24T14:59:58.320Z,10.00
2022-12-24T15:03:01.397Z,9.90
2022-12-24T15:05:29.601Z,9.90
2022-12-24T15:07:58.830Z,9.90
2022-12-24T15:10:36.135Z,9.90
2022-12-24T15:13:05.141Z,10.00
2022-12-24T15:15:32.955Z,9.90
2022-12-24T15:18:00.584Z,9.50
2022-12-24T15:20:28.811Z,9.80
2022-12-24T15:22:56.863Z,9.20
2022-12-24T15:25:26.530Z,9.90
2022-12-24T15:27:54.019Z,9.80
2022-12-24T15:30:22.628Z,9.80
2022-12-24T15:32:50.758Z,9.80
2022-12-24T15:35:35.768Z,9.80
2022-12-24T15:38:06.524Z,9.70
2022-12-24T15:40:34.909Z,10.20
2022-12-24T15:43:02.323Z,9.60
2022-12-24T15:45:33.741Z,9.60
2022-12-24T15:48:06.357Z,9.60
2022-12-24T15:50:37.272Z,9.60
2022-12-24T15:53:18.513Z,9.60
2022-12-24T15:56:07.529Z,9.50
2022-12-24T15:58:36.759Z,9.50
2022-12-24T16:01:04.020Z,9.50
2022-12-24T16:03:31.728Z,9.40
2022-12-24T16:06:00.440Z,9.40
2022-12-24T16:08:32.212Z,9.40
2022-12-24T16:11:19.523Z,9.30
2022-12-24T16:13:52.675Z,9.30
2022-12-24T16:16:21.635Z,9.30
2022-12-24T16:18:48.815Z,9.20
2022-12-24T16:21:20.487Z,9.30
2022-12-24T16:23:48.755Z,9.20
2022-12-24T16:26:16.183Z,9.20
2022-12-24T16:28:43.250Z,9.20
2022-12-24T16:31:28.199Z,9.70
2022-12-24T16:33:56.008Z,9.10
2022-12-24T16:36:23.126Z,9.10
2022-12-24T16:39:08.973Z,8.90
2022-12-24T16:41:56.099Z,9.00
2022-12-24T16:44:23.255Z,9.00
2022-12-24T16:46:50.426Z,9.00
2022-12-24T16:49:18.928Z,9.30
2022-12-24T16:51:46.260Z,9.00
2022-12-24T16:54:14.063Z,9.00
2022-12-24T16:56:41.900Z,9.00
2022-12-24T16:59:15.619Z,9.00
2022-12-24T17:01:42.989Z,9.20
2022-12-24T17:04:10.331Z,9.00
2022-12-24T17:06:37.448Z,9.00
2022-12-24T17:09:05.165Z,9.10
2022-12-24T17:11:32.389Z,9.00
2022-12-24T17:14:03.087Z,9.10
2022-12-24T17:16:34.442Z,9.10
2022-12-24T17:19:01.577Z,9.10
2022-12-24T17:21:28.766Z,9.10
2022-12-24T17:23:55.873Z,9.10
2022-12-24T17:26:22.989Z,9.10
2022-12-24T17:28:53.154Z,9.10
2022-12-24T17:31:20.364Z,9.10
2022-12-24T17:33:50.784Z,9.00
2022-12-24T17:36:19.054Z,9.00
2022-12-24T17:38:46.194Z,9.00
2022-12-24T17:41:14.576Z,9.00
2022-12-24T17:43:42.105Z,9.00
2022-12-24T17:46:10.833Z,9.10
2022-12-24T17:48:37.976Z,9.00
2022-12-24T17:51:06.001Z,9.00
2022-12-24T17:53:36.625Z,9.00
2022-12-24T17:56:04.128Z,9.10
2022-12-24T17:58:31.404Z,9.00
2022-12-24T18:00:58.847Z,9.10
2022-12-24T18:03:26.505Z,9.20
2022-12-24T18:05:53.704Z,9.20
2022-12-24T18:08:20.913Z,9.20
2022-12-24T18:10:48.100Z,9.30
2022-12-24T18:13:19.301Z,9.30
2022-12-24T18:15:46.802Z,9.30
2022-12-24T18:18:14.002Z,9.30
2022-12-24T18:20:46.268Z,9.30
2022-12-24T18:23:13.578Z,9.30
2022-12-24T18:25:40.661Z,9.30
2022-12-24T18:28:07.739Z,9.40
2022-12-24T18:30:34.850Z,9.40
2022-12-24T18:33:02.187Z,9.40
2022-12-24T18:35:29.354Z,9.40
2022-12-24T18:37:56.499Z,9.40
2022-12-24T18:40:23.568Z,9.40
2022-12-24T18:42:50.689Z,9.40
2022-12-24T18:45:17.773Z,9.40
2022-12-24T18:47:44.888Z,9.40
2022-12-24T18:50:12.409Z,9.50
2022-12-24T18:52:39.671Z,9.50
2022-12-24T18:55:06.926Z,9.50
2022-12-24T18:57:34.035Z,9.50
2022-12-24T19:00:01.140Z,9.40
2022-12-24T19:02:28.527Z,9.50
2022-12-24T19:04:55.705Z,9.50
2022-12-24T19:07:22.819Z,9.50
2022-12-24T19:09:49.916Z,9.50
2022-12-24T19:12:16.993Z,9.50
2022-12-24T19:14:44.072Z,9.60
2022-12-24T19:17:11.198Z,9.60
2022-12-24T19:19:38.357Z,9.60
2022-12-24T19:22:05.535Z,9.60
2022-12-24T19:24:32.679Z,9.60
2022-12-24T19:26:59.906Z,9.60
2022-12-24T19:29:26.999Z,9.70
2022-12-24T19:31:54.205Z,9.70
2022-12-24T19:34:22.421Z,9.70
2022-12-24T19:36:49.631Z,9.70
2022-12-24T19:39:17.363Z,9.60
2022-12-24T19:41:44.505Z,9.80
2022-12-24T19:44:12.145Z,9.80
2022-12-24T19:46:39.310Z,9.80
2022-12-24T19:49:07.342Z,9.90
2022-12-24T19:51:34.801Z,9.90
2022-12-24T19:54:02.262Z,9.80
2022-12-24T19:56:30.044Z,9.90
2022-12-24T19:58:57.791Z,9.90
2022-12-24T20:01:26.070Z,9.90
2022-12-24T20:03:53.612Z,9.90
2022-12-24T20:06:22.497Z,9.90
2022-12-24T20:08:49.867Z,10.00
2022-12-24T20:11:18.424Z,10.00
2022-12-24T20:13:45.825Z,10.00
2022-12-24T20:16:14.677Z,10.00
2022-12-24T20:18:41.814Z,10.10
2022-12-24T20:21:10.448Z,10.10
2022-12-24T20:23:38.413Z,10.40
2022-12-24T20:26:06.897Z,10.10
2022-12-24T20:28:34.900Z,10.10
2022-12-24T20:31:02.111Z,10.10
2022-12-24T20:33:29.267Z,10.10
2022-12-24T20:36:00.843Z,10.10
2022-12-24T20:38:28.414Z,10.10
2022-12-24T20:40:56.289Z,10.10
2022-12-24T20:43:24.640Z,10.10
2022-12-24T20:45:52.750Z,10.10
2022-12-24T20:48:19.893Z,10.20
2022-12-24T20:50:47.310Z,10.20
2022-12-24T20:53:14.620Z,10.20
2022-12-24T20:55:41.748Z,10.20
2022-12-24T20:58:09.904Z,10.10
2022-12-24T21:00:37.086Z,10.10
2022-12-24T21:03:04.234Z,10.10
2022-12-24T21:05:31.597Z,9.60
2022-12-24T21:07:58.735Z,10.10
2022-12-24T21:10:32.288Z,10.10
2022-12-24T21:13:01.369Z,10.10
2022-12-24T21:15:30.271Z,10.10
2022-12-24T21:17:58.559Z,10.10
2022-12-24T21:20:30.272Z,10.10
2022-12-24T21:23:00.996Z,10.10
2022-12-24T21:25:28.798Z,10.30
2022-12-24T21:27:55.976Z,10.10
2022-12-24T21:30:24.072Z,10.10
2022-12-24T21:32:51.614Z,10.10
2022-12-24T21:35:19.104Z,10.10
2022-12-24T21:37:46.332Z,10.10
2022-12-24T21:40:13.437Z,10.10
2022-12-24T21:42:40.540Z,10.10
2022-12-24T21:45:07.982Z,10.20
2022-12-24T21:47:35.805Z,11.30
2022-12-24T21:50:21.621Z,10.20
2022-12-24T21:53:08.727Z,10.30
2022-12-24T21:55:36.070Z,10.20
2022-12-24T21:58:03.157Z,10.20
2022-12-24T22:00:30.785Z,10.20
2022-12-24T22:02:58.951Z,10.50
2022-12-24T22:05:26.546Z,10.30
2022-12-24T22:08:13.271Z,10.30
2022-12-24T22:10:59.369Z,10.80
2022-12-24T22:13:26.535Z,10.30
2022-12-24T22:15:54.193Z,10.30
2022-12-24T22:18:24.929Z,10.30
2022-12-24T22:20:52.247Z,10.20
2022-12-24T22:23:19.755Z,10.30
2022-12-24T22:25:47.332Z,10.30
2022-12-24T22:28:14.598Z,10.30
2022-12-24T22:30:42.254Z,11.60
2022-12-24T22:33:09.549Z,10.30
2022-12-24T22:35:40.110Z,10.30
2022-12-24T22:38:10.362Z,10.30
2022-12-24T22:40:40.521Z,10.20
2022-12-24T22:43:07.642Z,10.20
2022-12-24T22:45:35.398Z,10.20
2022-12-24T22:48:02.741Z,10.30
2022-12-24T22:50:29.849Z,10.40
2022-12-24T22:52:57.077Z,10.30
2022-12-24T22:55:24.497Z,10.30
2022-12-24T22:57:51.572Z,10.30
2022-12-24T23:00:37.565Z,10.30
2022-12-24T23:03:05.045Z,10.30
2022-12-24T23:05:32.352Z,10.30
2022-12-24T23:07:59.612Z,10.80
2022-12-24T23:10:26.843Z,10.30
2022-12-24T23:13:15.105Z,10.30
2022-12-24T23:15:42.797Z,11.00
2022-12-24T23:18:10.310Z,10.40
2022-12-24T23:20:38.547Z,10.40
2022-12-24T23:23:05.861Z,10.40
2022-12-24T23:25:32.937Z,10.40
2022-12-24T23:28:00.228Z,10.40
2022-12-24T23:30:27.576Z,10.40
2022-12-24T23:32:54.726Z,10.70
2022-12-24T23:35:21.837Z,10.40
2022-12-24T23:37:48.961Z,10.50
2022-12-24T23:40:16.099Z,11.40
2022-12-24T23:42:43.141Z,10.90
2022-12-24T23:45:10.351Z,11.00
2022-12-24T23:47:37.446Z,9.10
2022-12-24T23:50:05.134Z,10.40
2022-12-24T23:52:32.318Z,10.40
2022-12-24T23:54:59.417Z,10.40
2022-12-24T23:57:26.572Z,10.40
2022-12-24T23:59:53.697Z,10.40
